Fort Worth Alliance Airport
KAFW : now visible

Airfield :











YOU CAN JOIN US ON...

 
LOGIN :

Register | Disclaimer

   EN    FR    IT 

 









Legend :    VFR   Marginal VFR   IFR   Intensive IFR   Very Intensive IFR
Visi :
Ceiling :
>= 8 km
>= 3000ft
5 to 8 km
1000 to 3000 ft
1500m to 5 km
500 to 1000 ft
800 to 1500m
200 to 500 ft
< 800m
< 200 ft
Symbols :   Thunderstorms  Fog  Heavy snow  Heavy precipitations  Wind > 20 kt






- Airport Elevation : 722 ft


KAFW - Fort Worth Alliance

CURRENT METAR :
  • 081953Z 15012G20KT 10SM FEW075 FEW300 36/18 A3004 RMK AO2 SLP152 T03610178

EXPIRED METARs :
  • 081853Z 17010G21KT 10SM FEW300 36/18 A3005 RMK AO2 SLP157 T03560183
  • 081753Z 17011G18KT 10SM FEW300 35/18 A3007 RMK AO2 SLP163 T03500183 10350 20272 58003

TAF KAFW
Valid from the 08 at 18:00 until the 09 at 18:00 UTC


081720Z 0818/0918 17012KT P6SM FEW250
KZFW FIR / North America



MET'MAP, your aeronautical weather chart ! - Copyright ORBIFLY December 2007 - Disclaimer

ORBIFLY MET'MAP TEAM :

Programming & Development : Alexandra Zaïnal
Concept & original design : Baudouin d'Aumeries
Assistance for programming : Marc-Olivier Méhu
Technical & hardware support : Manuel Goepfert

Contact : metmap@orbifly.com




SOURCES & CREDITS :

   NOAA       Earth
Advisory